Time;durP1;ratioP1;P1;durP2;ratioP2;P2;SDS_P1;SDS_P2;PMS_P1;PMS_P2;Temp;Humidity;BMP_temperature;BMP_pressure;BME280_temperature;BME280_humidity;BME280_pressure;Samples;Min_cycle;Max_cycle;Signal;HPM_P1;HPM_P2
2021/06/13 00:00:25;;;;;;;4.53;4.23;;;21.80;95.50;;;;;;6300218;28;20723;-63
2021/06/13 00:03:29;;;;;;;4.50;4.20;;;21.80;95.10;;;;;;6300731;28;20246;-63
2021/06/13 00:06:32;;;;;;;3.67;3.40;;;21.80;94.70;;;;;;6300071;28;20569;-63
2021/06/13 00:09:34;;;;;;;4.53;4.23;;;21.80;94.30;;;;;;6274563;28;20238;-63
2021/06/13 00:12:37;;;;;;;3.70;3.50;;;21.90;94.50;;;;;;6275374;28;20243;-62
2021/06/13 00:15:40;;;;;;;4.17;3.87;;;21.90;94.10;;;;;;6275125;28;20369;-62
2021/06/13 00:18:45;;;;;;;4.53;4.20;;;22.00;93.80;;;;;;6275122;28;20231;-62
2021/06/13 00:21:48;;;;;;;4.13;3.73;;;22.00;93.90;;;;;;6274964;28;20238;-62
2021/06/13 00:24:51;;;;;;;4.63;4.23;;;22.10;93.80;;;;;;6274873;28;20689;-62
2021/06/13 00:27:53;;;;;;;4.80;4.10;;;22.00;94.10;;;;;;6274613;28;20708;-62
2021/06/13 00:30:57;;;;;;;3.90;3.33;;;22.00;94.70;;;;;;6274572;28;20234;-62
2021/06/13 00:34:01;;;;;;;4.23;3.77;;;22.00;95.50;;;;;;6274658;28;20719;-62
2021/06/13 00:37:04;;;;;;;4.60;4.30;;;21.90;96.50;;;;;;6274290;28;20242;-62
2021/06/13 00:40:08;;;;;;;3.90;3.30;;;21.80;97.00;;;;;;6274565;28;20235;-61
2021/06/13 00:43:11;;;;;;;3.63;3.43;;;21.70;97.00;;;;;;6274409;28;20214;-63
2021/06/13 00:46:14;;;;;;;3.23;3.03;;;21.70;96.70;;;;;;6274392;28;20211;-62
2021/06/13 00:49:18;;;;;;;4.40;4.00;;;21.60;97.00;;;;;;6274313;28;20291;-62
2021/06/13 00:52:21;;;;;;;4.20;3.90;;;21.50;97.80;;;;;;6274805;28;20211;-62
2021/06/13 00:55:24;;;;;;;3.90;3.70;;;21.50;98.20;;;;;;6274167;28;20641;-62
2021/06/13 00:58:27;;;;;;;4.13;3.83;;;21.50;98.50;;;;;;6274065;28;20242;-62
2021/06/13 01:01:30;;;;;;;3.90;3.50;;;21.50;98.80;;;;;;6273944;28;20675;-62
2021/06/13 01:04:34;;;;;;;6.33;4.13;;;21.40;99.00;;;;;;6273957;28;20353;-62
2021/06/13 01:07:47;;;;;;;4.80;4.40;;;21.40;99.20;;;;;;6274170;28;20669;-62
2021/06/13 01:11:05;;;;;;;5.03;4.60;;;21.40;99.40;;;;;;6265187;28;20237;-62
2021/06/13 01:14:17;;;;;;;4.90;4.50;;;21.30;99.90;;;;;;6274453;28;20227;-62
2021/06/13 01:17:29;;;;;;;4.73;4.33;;;21.30;99.90;;;;;;6274138;28;20642;-62
2021/06/13 01:20:37;;;;;;;5.60;4.40;;;21.10;99.90;;;;;;6273744;28;20254;-62
2021/06/13 01:23:51;;;;;;;5.17;4.27;;;20.90;99.90;;;;;;6274221;28;20231;-62
2021/06/13 01:27:17;;;;;;;5.30;4.90;;;20.70;99.90;;;;;;6273804;28;20228;-62
2021/06/13 01:30:24;;;;;;;5.03;4.73;;;20.60;99.90;;;;;;6274301;28;20242;-62
2021/06/13 01:33:29;;;;;;;5.30;4.90;;;20.60;99.90;;;;;;6273733;28;20227;-63
2021/06/13 01:36:35;;;;;;;5.33;4.80;;;20.60;99.90;;;;;;6273692;28;20232;-62
2021/06/13 01:39:40;;;;;;;6.30;5.07;;;20.60;99.90;;;;;;6273469;28;20688;-62
2021/06/13 01:42:48;;;;;;;4.93;4.53;;;20.60;99.90;;;;;;6273971;28;20693;-62
2021/06/13 01:45:55;;;;;;;4.47;4.20;;;20.50;99.90;;;;;;6273584;28;20239;-62
2021/06/13 01:48:59;;;;;;;5.30;4.90;;;20.50;99.90;;;;;;6273521;28;20584;-62
2021/06/13 01:52:03;;;;;;;5.07;4.77;;;20.60;99.90;;;;;;6273509;28;20681;-62
2021/06/13 01:55:08;;;;;;;6.43;5.93;;;20.60;99.90;;;;;;6273785;28;20281;-62
2021/06/13 01:58:13;;;;;;;5.87;5.47;;;20.60;99.90;;;;;;6273136;28;20559;-62
2021/06/13 02:01:21;;;;;;;5.40;5.00;;;20.60;99.90;;;;;;6273749;28;20231;-62
2021/06/13 02:04:26;;;;;;;4.97;4.57;;;20.50;99.90;;;;;;6273498;28;20279;-62
2021/06/13 02:07:33;;;;;;;4.70;4.40;;;20.40;99.90;;;;;;6273860;28;20227;-62
2021/06/13 02:10:37;;;;;;;5.17;4.73;;;20.40;99.90;;;;;;6270789;28;20227;-62
2021/06/13 02:13:45;;;;;;;5.30;4.80;;;20.30;99.90;;;;;;6278160;28;20696;-62
2021/06/13 02:16:49;;;;;;;5.03;4.60;;;20.40;99.90;;;;;;6278396;28;20238;-62
2021/06/13 02:19:53;;;;;;;5.10;4.70;;;20.40;99.90;;;;;;6277941;28;20295;-62
2021/06/13 02:22:56;;;;;;;4.40;4.10;;;20.30;99.90;;;;;;6277981;28;20227;-63
2021/06/13 02:25:59;;;;;;;4.83;4.53;;;20.20;99.90;;;;;;6277689;28;20234;-63
2021/06/13 02:29:03;;;;;;;5.17;4.77;;;20.20;99.90;;;;;;6277622;28;20708;-63
2021/06/13 02:32:10;;;;;;;5.20;4.73;;;20.30;99.90;;;;;;6278124;28;20227;-62
2021/06/13 02:35:15;;;;;;;4.80;4.43;;;20.20;99.90;;;;;;6277823;28;20220;-62
2021/06/13 02:38:19;;;;;;;5.10;4.70;;;20.30;99.90;;;;;;6277416;28;20235;-62
2021/06/13 02:41:22;;;;;;;5.67;5.17;;;20.30;99.90;;;;;;6277810;28;20235;-62
2021/06/13 02:44:27;;;;;;;5.07;4.73;;;20.30;99.90;;;;;;6277352;28;20689;-62
2021/06/13 02:47:31;;;;;;;4.87;4.47;;;20.30;99.90;;;;;;6277632;28;20231;-62
2021/06/13 02:50:34;;;;;;;5.20;4.80;;;20.20;99.90;;;;;;6276902;28;20235;-62
2021/06/13 02:53:43;;;;;;;5.73;5.33;;;20.20;99.90;;;;;;6277439;28;20223;-63
2021/06/13 02:56:53;;;;;;;5.33;4.93;;;20.20;99.90;;;;;;6276802;28;20231;-62
2021/06/13 03:00:00;;;;;;;5.67;5.27;;;20.10;99.90;;;;;;6277342;28;20223;-62
2021/06/13 03:03:05;;;;;;;5.00;4.70;;;20.10;99.90;;;;;;6276872;28;20685;-62
2021/06/13 03:06:11;;;;;;;5.13;4.73;;;20.00;99.90;;;;;;6276927;28;20567;-62
2021/06/13 03:09:14;;;;;;;5.80;5.30;;;19.90;99.90;;;;;;6276525;28;20250;-62
2021/06/13 03:12:19;;;;;;;5.67;5.27;;;20.00;99.90;;;;;;6276803;28;20231;-62
2021/06/13 03:15:22;;;;;;;5.30;5.00;;;20.00;99.90;;;;;;6276703;28;20231;-62
2021/06/13 03:18:29;;;;;;;5.40;4.90;;;20.00;99.90;;;;;;6276567;28;20238;-62
2021/06/13 03:21:32;;;;;;;4.90;4.50;;;19.90;99.90;;;;;;6276292;28;20236;-63
2021/06/13 03:24:37;;;;;;;5.37;4.97;;;20.00;99.90;;;;;;6276219;28;20230;-63
2021/06/13 03:27:43;;;;;;;4.87;4.53;;;20.00;99.90;;;;;;6276496;28;20267;-63
2021/06/13 03:30:47;;;;;;;5.40;5.00;;;20.00;99.90;;;;;;6276320;28;20232;-63
2021/06/13 03:33:53;;;;;;;5.33;4.93;;;20.10;99.90;;;;;;6276205;28;20231;-63
2021/06/13 03:36:56;;;;;;;4.80;4.50;;;20.10;99.90;;;;;;6275862;28;20275;-63
2021/06/13 03:40:01;;;;;;;5.30;5.00;;;20.10;99.90;;;;;;6276234;28;20696;-63
2021/06/13 03:43:04;;;;;;;5.07;4.67;;;20.10;99.90;;;;;;6275867;28;20289;-63
2021/06/13 03:46:08;;;;;;;5.53;5.03;;;20.10;99.90;;;;;;6275788;28;20224;-62
2021/06/13 03:49:16;;;;;;;5.60;5.13;;;20.10;99.90;;;;;;6275642;28;20261;-62
2021/06/13 03:52:22;;;;;;;4.33;4.03;;;20.10;99.90;;;;;;6276134;28;20214;-63
2021/06/13 03:55:25;;;;;;;5.00;4.60;;;20.10;99.90;;;;;;6275898;28;20207;-62
2021/06/13 03:58:30;;;;;;;5.33;4.93;;;20.10;99.90;;;;;;6275608;28;20554;-62
2021/06/13 04:01:34;;;;;;;4.70;4.27;;;20.00;99.90;;;;;;6275440;28;20227;-62
2021/06/13 04:04:42;;;;;;;4.70;4.40;;;20.00;99.90;;;;;;6275453;28;20223;-63
2021/06/13 04:07:46;;;;;;;5.23;4.83;;;19.90;99.90;;;;;;6275550;28;20227;-63
2021/06/13 04:10:52;;;;;;;5.10;4.63;;;19.90;99.90;;;;;;6275633;28;20231;-63
2021/06/13 04:13:57;;;;;;;6.50;4.40;;;19.90;99.90;;;;;;6275479;28;20239;-62
2021/06/13 04:17:01;;;;;;;4.60;4.30;;;19.80;99.90;;;;;;6275486;28;20227;-63
2021/06/13 04:20:10;;;;;;;4.57;4.27;;;19.70;99.90;;;;;;6275031;28;20561;-63
2021/06/13 04:23:15;;;;;;;4.57;4.17;;;19.70;99.90;;;;;;6275371;28;20220;-63
2021/06/13 04:26:20;;;;;;;5.20;4.70;;;19.70;99.90;;;;;;6274990;28;20262;-62
2021/06/13 04:29:23;;;;;;;4.00;3.70;;;19.60;99.90;;;;;;6274722;28;20335;-62
2021/06/13 04:32:26;;;;;;;4.73;4.40;;;19.70;99.90;;;;;;6275298;28;20235;-62
2021/06/13 04:35:31;;;;;;;4.90;4.60;;;19.70;99.90;;;;;;6274481;28;20735;-62
2021/06/13 04:38:34;;;;;;;4.90;4.50;;;19.70;99.90;;;;;;6274749;28;20228;-63
2021/06/13 04:41:37;;;;;;;4.70;4.40;;;19.70;99.90;;;;;;6274586;28;20231;-63
2021/06/13 04:44:41;;;;;;;4.67;4.37;;;19.70;99.90;;;;;;6274775;28;20227;-63
2021/06/13 04:47:44;;;;;;;4.87;4.47;;;19.80;99.90;;;;;;6274484;28;20231;-63
2021/06/13 04:50:50;;;;;;;4.80;4.40;;;19.80;99.90;;;;;;6274282;28;20689;-63
2021/06/13 04:54:23;;;;;;;4.80;4.50;;;19.80;99.90;;;;;;6274334;28;20250;-63
2021/06/13 04:57:45;;;;;;;5.13;4.73;;;19.90;99.90;;;;;;6274523;28;20237;-63
2021/06/13 05:00:49;;;;;;;4.47;4.17;;;19.90;99.90;;;;;;6274294;28;20258;-63
2021/06/13 05:03:52;;;;;;;4.97;4.57;;;19.90;99.90;;;;;;6274381;28;20688;-63
2021/06/13 05:06:57;;;;;;;4.70;4.30;;;19.80;99.90;;;;;;6274004;28;20250;-62
2021/06/13 05:10:00;;;;;;;5.27;4.87;;;19.80;99.90;;;;;;6274400;28;20242;-63
2021/06/13 05:13:14;;;;;;;4.97;4.57;;;19.90;99.90;;;;;;6274109;28;20576;-63
2021/06/13 05:16:17;;;;;;;4.60;4.30;;;20.00;99.90;;;;;;6274401;28;20219;-62
2021/06/13 05:19:20;;;;;;;4.33;4.03;;;20.20;99.90;;;;;;6273683;28;20203;-62
2021/06/13 05:22:25;;;;;;;5.00;4.60;;;20.40;99.90;;;;;;6274226;28;20219;-63
2021/06/13 05:25:32;;;;;;;5.87;5.47;;;20.70;99.90;;;;;;6267430;28;20650;-63
2021/06/13 05:28:35;;;;;;;5.43;4.90;;;20.70;99.90;;;;;;6295005;28;20231;-62
2021/06/13 05:31:39;;;;;;;5.70;5.20;;;20.70;99.90;;;;;;6274030;28;20231;-62
2021/06/13 05:34:42;;;;;;;5.30;4.90;;;20.60;99.90;;;;;;6273833;28;20223;-62
2021/06/13 05:37:47;;;;;;;5.57;5.07;;;20.50;99.90;;;;;;6273979;28;20238;-62
2021/06/13 05:40:50;;;;;;;5.07;4.77;;;20.40;99.90;;;;;;6273914;28;20713;-64
2021/06/13 05:43:53;;;;;;;5.87;5.47;;;20.40;99.90;;;;;;6274183;28;20223;-62
2021/06/13 05:46:56;;;;;;;6.00;5.00;;;20.40;99.90;;;;;;6277060;28;20254;-62
2021/06/13 05:49:59;;;;;;;5.83;5.40;;;20.40;99.90;;;;;;6278780;28;20223;-62
2021/06/13 05:53:06;;;;;;;5.90;5.33;;;20.40;99.90;;;;;;6278759;28;20222;-62
2021/06/13 05:56:09;;;;;;;5.47;5.00;;;20.40;99.90;;;;;;6278779;28;20219;-62
2021/06/13 05:59:12;;;;;;;5.70;5.30;;;20.50;99.90;;;;;;6278624;28;20238;-62
2021/06/13 06:02:16;;;;;;;5.80;5.20;;;20.30;99.90;;;;;;6278383;28;20227;-62
2021/06/13 06:05:20;;;;;;;5.13;4.73;;;20.30;99.90;;;;;;6278306;28;20234;-63
2021/06/13 06:08:26;;;;;;;5.57;5.17;;;20.20;99.90;;;;;;6278533;28;20246;-63
2021/06/13 06:11:30;;;;;;;4.63;4.33;;;20.30;99.90;;;;;;6278147;28;20231;-63
2021/06/13 06:14:33;;;;;;;4.20;3.90;;;20.20;99.90;;;;;;6278326;28;20250;-64
2021/06/13 06:17:36;;;;;;;4.87;4.20;;;20.60;99.90;;;;;;6277898;28;20242;-63
2021/06/13 06:20:39;;;;;;;4.40;4.10;;;20.80;99.90;;;;;;6278108;28;20295;-63
2021/06/13 06:23:44;;;;;;;4.67;4.37;;;21.00;99.90;;;;;;6277853;28;20580;-63
2021/06/13 06:26:47;;;;;;;3.83;3.53;;;21.70;99.90;;;;;;6277825;28;20571;-63
2021/06/13 06:29:50;;;;;;;4.20;3.90;;;22.00;99.90;;;;;;6272783;28;20250;-63
2021/06/13 06:32:55;;;;;;;4.13;3.83;;;21.90;99.90;;;;;;6278138;28;20231;-63
2021/06/13 06:35:59;;;;;;;4.43;4.10;;;21.90;99.90;;;;;;6277836;28;20224;-63
2021/06/13 06:39:04;;;;;;;4.53;4.13;;;21.90;99.90;;;;;;6277632;28;20235;-63
2021/06/13 06:42:07;;;;;;;4.00;3.70;;;21.90;99.90;;;;;;6277565;28;20227;-63
2021/06/13 06:45:13;;;;;;;3.80;3.50;;;21.70;99.90;;;;;;6277396;28;20569;-63
2021/06/13 06:48:16;;;;;;;5.03;3.90;;;21.70;99.90;;;;;;6277285;28;20238;-63
2021/06/13 06:51:19;;;;;;;3.80;3.50;;;21.70;99.90;;;;;;6276939;28;20715;-63
2021/06/13 06:54:24;;;;;;;3.10;2.80;;;21.70;99.90;;;;;;6277384;28;20236;-63
2021/06/13 06:57:27;;;;;;;4.37;4.07;;;21.50;99.90;;;;;;6275915;28;20278;-63
2021/06/13 07:00:30;;;;;;;3.83;3.53;;;21.30;99.90;;;;;;6276998;28;20592;-63
2021/06/13 07:03:35;;;;;;;4.57;4.17;;;21.50;99.90;;;;;;6276488;28;20240;-63
2021/06/13 07:06:38;;;;;;;4.03;3.73;;;21.60;99.40;;;;;;6276875;28;20242;-63
2021/06/13 07:09:42;;;;;;;4.47;4.07;;;21.70;99.80;;;;;;6276643;28;20246;-63
2021/06/13 07:12:46;;;;;;;4.50;4.20;;;22.10;99.10;;;;;;6277072;28;20227;-63
2021/06/13 07:15:50;;;;;;;4.27;3.87;;;22.30;98.80;;;;;;6276895;28;20608;-63
2021/06/13 07:18:53;;;;;;;4.17;3.87;;;22.40;98.20;;;;;;6276591;28;20235;-63
2021/06/13 07:21:56;;;;;;;4.93;4.60;;;22.50;98.20;;;;;;6276734;28;20232;-63
2021/06/13 07:25:05;;;;;;;5.20;4.70;;;22.60;98.10;;;;;;6276903;28;20232;-63
2021/06/13 07:28:08;;;;;;;4.57;4.17;;;22.30;97.80;;;;;;6276235;28;20235;-62
2021/06/13 07:31:12;;;;;;;5.10;4.77;;;22.10;98.10;;;;;;6276414;28;20223;-63
2021/06/13 07:34:16;;;;;;;4.60;4.20;;;22.80;98.00;;;;;;6276574;28;20200;-62
2021/06/13 07:37:19;;;;;;;4.57;4.27;;;23.70;95.90;;;;;;6276151;28;20223;-62
2021/06/13 07:40:24;;;;;;;5.47;4.47;;;23.90;95.30;;;;;;6276440;28;20207;-62
2021/06/13 07:43:27;;;;;;;5.60;4.93;;;23.90;95.00;;;;;;6275763;28;20665;-62
2021/06/13 07:46:32;;;;;;;5.37;4.87;;;23.90;94.40;;;;;;6276128;28;20238;-62
2021/06/13 07:49:35;;;;;;;5.10;4.67;;;23.40;94.80;;;;;;6276214;28;20293;-62
2021/06/13 07:52:39;;;;;;;5.63;5.13;;;23.00;95.90;;;;;;6276239;28;20219;-62
2021/06/13 07:55:43;;;;;;;4.63;4.33;;;23.50;95.40;;;;;;6275924;28;20227;-63
2021/06/13 07:58:47;;;;;;;6.23;4.60;;;24.20;94.50;;;;;;6275833;28;20231;-63
2021/06/13 08:01:50;;;;;;;5.53;5.03;;;24.40;93.70;;;;;;6275795;28;20224;-64
2021/06/13 08:04:56;;;;;;;4.90;4.60;;;25.00;92.40;;;;;;6275285;28;20754;-63
2021/06/13 08:08:01;;;;;;;4.93;4.57;;;25.40;91.00;;;;;;6275019;28;20227;-64
2021/06/13 08:11:06;;;;;;;5.23;4.83;;;25.80;90.00;;;;;;6275107;28;20673;-63
2021/06/13 08:14:09;;;;;;;6.23;4.70;;;25.80;89.10;;;;;;6275646;28;20256;-63
2021/06/13 08:17:13;;;;;;;5.10;4.80;;;25.80;89.10;;;;;;6275069;28;20380;-63
2021/06/13 08:20:17;;;;;;;5.33;4.97;;;25.40;88.70;;;;;;6274973;28;20230;-63
2021/06/13 08:23:20;;;;;;;5.97;4.80;;;25.00;89.90;;;;;;6274877;28;20230;-62
2021/06/13 08:26:25;;;;;;;5.33;4.93;;;25.20;90.00;;;;;;6275112;28;20242;-62
2021/06/13 08:29:28;;;;;;;5.47;4.97;;;25.50;89.60;;;;;;6274634;28;20227;-62
2021/06/13 08:32:31;;;;;;;5.77;5.37;;;25.60;88.50;;;;;;6275079;28;20219;-62
2021/06/13 08:35:34;;;;;;;5.10;4.70;;;25.40;87.90;;;;;;6269964;28;20235;-62
2021/06/13 08:38:38;;;;;;;4.93;4.53;;;25.00;89.90;;;;;;6274592;28;20254;-62
2021/06/13 08:41:42;;;;;;;5.70;5.30;;;25.00;88.70;;;;;;6274688;28;20227;-62
2021/06/13 08:44:46;;;;;;;5.17;4.80;;;25.00;88.30;;;;;;6274909;28;20227;-63
2021/06/13 08:47:52;;;;;;;5.17;4.83;;;25.10;87.60;;;;;;6274460;28;20685;-63
2021/06/13 08:50:56;;;;;;;5.13;4.73;;;25.30;88.40;;;;;;6274508;28;20238;-63
2021/06/13 08:53:59;;;;;;;5.70;5.30;;;25.30;88.50;;;;;;6274933;28;20227;-63
2021/06/13 08:57:05;;;;;;;4.97;4.67;;;25.20;87.50;;;;;;6274277;28;20231;-63
2021/06/13 09:00:10;;;;;;;5.30;4.90;;;25.20;87.60;;;;;;6274506;28;20711;-63
2021/06/13 09:03:14;;;;;;;5.43;5.03;;;25.40;86.60;;;;;;6274242;28;20688;-63
2021/06/13 09:06:17;;;;;;;5.00;4.60;;;25.40;86.40;;;;;;6274054;28;20701;-63
2021/06/13 09:09:22;;;;;;;5.60;5.20;;;25.20;87.10;;;;;;6274099;28;20231;-63
2021/06/13 09:12:34;;;;;;;4.67;4.30;;;25.30;86.80;;;;;;6274618;28;20684;-63
2021/06/13 09:15:41;;;;;;;5.13;4.80;;;25.30;85.60;;;;;;6274302;28;20226;-63
2021/06/13 09:18:46;;;;;;;5.43;5.03;;;25.20;85.20;;;;;;6274076;28;20582;-63
2021/06/13 09:21:49;;;;;;;5.60;5.20;;;25.20;87.20;;;;;;6273302;28;20227;-63
2021/06/13 09:25:05;;;;;;;6.00;5.40;;;25.00;86.10;;;;;;6273963;28;20660;-62
2021/06/13 09:28:16;;;;;;;5.60;5.20;;;25.10;86.40;;;;;;6273542;28;20250;-62
2021/06/13 09:31:21;;;;;;;5.23;4.83;;;25.30;83.50;;;;;;6274168;28;20536;-63
2021/06/13 09:34:24;;;;;;;4.97;4.67;;;25.40;84.90;;;;;;6274031;28;20206;-62
2021/06/13 09:37:28;;;;;;;4.73;4.43;;;25.40;81.80;;;;;;6274236;28;20227;-62
2021/06/13 09:40:31;;;;;;;5.17;4.70;;;25.80;77.50;;;;;;6273765;28;20687;-62
2021/06/13 09:43:40;;;;;;;4.80;4.47;;;26.10;73.20;;;;;;6274159;28;20238;-62
2021/06/13 09:46:46;;;;;;;4.40;4.10;;;26.50;72.00;;;;;;6273686;28;20234;-63
2021/06/13 09:49:50;;;;;;;5.17;4.73;;;26.80;69.70;;;;;;6274139;28;20223;-63
2021/06/13 09:52:53;;;;;;;5.67;5.17;;;27.10;69.70;;;;;;6273531;28;20576;-63
2021/06/13 09:56:28;;;;;;;5.90;4.13;;;27.40;67.10;;;;;;6274008;28;20234;-63
2021/06/13 09:59:35;;;;;;;4.97;4.57;;;27.50;65.00;;;;;;6273606;28;20584;-63
2021/06/13 10:02:43;;;;;;;4.47;4.07;;;27.60;62.90;;;;;;6273985;28;20223;-63
2021/06/13 10:05:56;;;;;;;4.37;3.90;;;27.40;62.80;;;;;;6273324;28;20238;-63
2021/06/13 10:09:00;;;;;;;7.13;5.40;;;27.50;61.60;;;;;;6273515;28;20245;-63
2021/06/13 10:12:06;;;;;;;5.43;5.03;;;27.60;64.10;;;;;;6273464;28;20711;-63
2021/06/13 10:15:15;;;;;;;5.47;5.10;;;27.50;66.20;;;;;;6273832;28;20262;-63
2021/06/13 10:18:20;;;;;;;4.47;4.10;;;26.60;66.40;;;;;;6273853;28;20238;-62
2021/06/13 10:21:27;;;;;;;7.10;4.43;;;26.40;66.70;;;;;;6273758;28;20227;-63
2021/06/13 10:24:33;;;;;;;4.70;4.30;;;26.70;66.40;;;;;;6273469;28;20227;-62
2021/06/13 10:27:37;;;;;;;4.60;4.30;;;26.80;64.00;;;;;;6273222;28;20621;-62
2021/06/13 10:30:42;;;;;;;5.20;4.80;;;26.90;62.30;;;;;;6273041;28;20245;-62
2021/06/13 10:33:46;;;;;;;4.33;3.93;;;27.20;62.10;;;;;;6277725;28;20234;-62
2021/06/13 10:36:50;;;;;;;3.67;3.37;;;27.40;60.10;;;;;;6277193;28;20235;-63
2021/06/13 10:39:53;;;;;;;5.33;4.10;;;27.70;57.60;;;;;;6277994;28;20238;-63
2021/06/13 10:42:57;;;;;;;4.30;4.00;;;27.80;55.00;;;;;;6277325;28;20227;-63
2021/06/13 10:46:07;;;;;;;4.57;3.30;;;27.80;54.50;;;;;;6277801;28;20288;-63
2021/06/13 10:49:31;;;;;;;3.57;3.37;;;27.70;53.10;;;;;;6276660;28;20702;-62
2021/06/13 10:52:35;;;;;;;4.60;3.17;;;27.70;53.60;;;;;;6277362;28;20245;-64
2021/06/13 10:55:51;;;;;;;3.77;3.47;;;27.60;52.80;;;;;;6276905;28;20226;-63
2021/06/13 10:59:00;;;;;;;3.73;3.43;;;27.60;53.20;;;;;;6277346;28;20246;-63
2021/06/13 11:02:10;;;;;;;3.60;3.30;;;27.90;54.30;;;;;;6277079;28;20671;-64
2021/06/13 11:05:14;;;;;;;4.23;3.83;;;28.00;52.50;;;;;;6277300;28;20238;-64
2021/06/13 11:08:18;;;;;;;3.30;3.10;;;28.20;50.90;;;;;;6276792;28;20557;-63
2021/06/13 11:11:37;;;;;;;5.07;3.20;;;28.30;49.50;;;;;;6276846;28;20243;-64
2021/06/13 11:14:54;;;;;;;3.70;3.40;;;28.20;48.40;;;;;;6277114;28;20242;-63
2021/06/13 11:18:00;;;;;;;2.83;2.47;;;28.20;48.00;;;;;;6276736;28;20242;-63
2021/06/13 11:21:08;;;;;;;2.70;2.47;;;28.20;42.70;;;;;;6276722;28;20223;-64
2021/06/13 11:24:12;;;;;;;4.07;2.07;;;28.10;41.70;;;;;;6276718;28;20569;-63
2021/06/13 11:27:15;;;;;;;3.20;2.43;;;28.00;40.80;;;;;;6276528;28;20235;-63
2021/06/13 11:30:29;;;;;;;2.83;2.50;;;28.00;40.60;;;;;;6276594;28;20234;-63
2021/06/13 11:33:40;;;;;;;2.77;2.57;;;28.00;40.30;;;;;;6276336;28;20223;-63
2021/06/13 11:36:44;;;;;;;3.00;2.70;;;28.00;38.90;;;;;;6276541;28;20246;-63
2021/06/13 11:39:55;;;;;;;2.80;2.60;;;28.00;39.20;;;;;;6276032;28;20268;-64
2021/06/13 11:43:11;;;;;;;2.00;1.90;;;27.90;38.50;;;;;;6275696;28;20580;-63
2021/06/13 11:46:14;;;;;;;2.60;2.40;;;28.00;38.20;;;;;;6300529;28;20241;-62
2021/06/13 11:49:21;;;;;;;3.00;2.43;;;27.80;35.50;;;;;;6300979;28;20206;-63
2021/06/13 11:53:00;;;;;;;2.07;1.90;;;27.60;36.80;;;;;;6300703;28;20210;-62
2021/06/13 11:56:03;;;;;;;2.70;2.30;;;27.70;36.30;;;;;;6300420;28;20237;-62
2021/06/13 11:59:09;;;;;;;2.17;1.97;;;27.80;36.00;;;;;;6300287;28;20238;-62
2021/06/13 12:02:14;;;;;;;3.20;2.03;;;27.70;34.30;;;;;;6300300;28;20539;-64
2021/06/13 12:05:18;;;;;;;3.87;2.23;;;27.60;34.30;;;;;;6300376;28;20234;-62
2021/06/13 12:08:22;;;;;;;2.67;1.97;;;27.50;35.00;;;;;;6300523;28;20332;-63
2021/06/13 12:11:49;;;;;;;4.50;1.90;;;27.50;34.10;;;;;;6300180;28;20236;-63
2021/06/13 12:14:59;;;;;;;1.90;1.80;;;27.50;31.60;;;;;;6300018;28;20226;-63
2021/06/13 12:18:04;;;;;;;2.23;1.73;;;27.30;33.00;;;;;;6300331;28;20238;-63
2021/06/13 12:21:09;;;;;;;1.73;1.60;;;27.30;32.40;;;;;;6300440;28;20226;-64
2021/06/13 12:24:15;;;;;;;4.63;1.77;;;27.20;31.60;;;;;;6300064;28;20226;-64
2021/06/13 12:27:22;;;;;;;1.97;1.83;;;27.20;31.70;;;;;;6299465;28;20309;-63
2021/06/13 12:30:27;;;;;;;2.17;1.80;;;27.20;31.30;;;;;;6299957;28;20234;-63
2021/06/13 12:33:36;;;;;;;4.10;1.87;;;27.10;31.70;;;;;;6299690;28;20252;-62
2021/06/13 12:36:48;;;;;;;1.97;1.53;;;27.10;32.40;;;;;;6299437;28;20230;-63
2021/06/13 12:39:57;;;;;;;3.00;1.93;;;27.20;32.40;;;;;;6299654;28;20226;-62
2021/06/13 12:43:00;;;;;;;3.17;2.10;;;27.20;31.70;;;;;;6299626;28;20241;-63
2021/06/13 12:46:05;;;;;;;3.10;2.07;;;27.40;31.80;;;;;;6299407;28;20234;-64
2021/06/13 12:49:08;;;;;;;3.00;2.27;;;27.60;31.90;;;;;;6299150;28;20368;-63
2021/06/13 12:52:18;;;;;;;2.70;2.50;;;27.60;30.40;;;;;;6295205;28;20230;-63
2021/06/13 12:55:22;;;;;;;3.27;1.97;;;27.40;31.00;;;;;;6298344;28;20225;-63
2021/06/13 12:58:28;;;;;;;2.80;2.60;;;27.50;30.40;;;;;;6299470;28;20226;-62
2021/06/13 13:01:32;;;;;;;2.03;1.83;;;27.40;31.60;;;;;;6299348;28;20234;-63
2021/06/13 13:04:42;;;;;;;2.20;2.00;;;27.40;31.20;;;;;;6299138;28;20226;-63
2021/06/13 13:07:50;;;;;;;1.70;1.60;;;27.30;30.90;;;;;;6299307;28;20349;-62
2021/06/13 13:10:55;;;;;;;3.53;2.57;;;27.20;30.30;;;;;;6299497;28;20226;-62
2021/06/13 13:14:02;;;;;;;3.40;2.10;;;27.20;30.40;;;;;;6299026;28;20222;-62
2021/06/13 13:17:05;;;;;;;2.23;2.03;;;27.10;29.80;;;;;;6298906;28;20222;-63
2021/06/13 13:20:21;;;;;;;6.33;2.00;;;27.10;30.20;;;;;;6298534;28;20695;-62
2021/06/13 13:23:26;;;;;;;2.10;1.60;;;27.10;30.80;;;;;;6299352;28;20223;-62
2021/06/13 13:26:29;;;;;;;2.20;2.00;;;27.10;30.90;;;;;;6298654;28;20234;-62
2021/06/13 13:29:41;;;;;;;2.23;1.90;;;27.00;30.90;;;;;;6298595;28;20240;-62
2021/06/13 13:32:53;;;;;;;1.70;1.40;;;27.00;30.70;;;;;;6299000;28;20222;-62
2021/06/13 13:35:56;;;;;;;2.27;2.07;;;26.90;30.70;;;;;;6298880;28;20233;-63
2021/06/13 13:39:02;;;;;;;6.93;2.27;;;26.90;31.60;;;;;;6298636;28;20332;-63
2021/06/13 13:42:09;;;;;;;2.33;2.13;;;26.90;32.00;;;;;;6299010;28;20238;-63
2021/06/13 13:45:21;;;;;;;1.83;1.70;;;26.90;32.00;;;;;;6298549;28;20230;-62
2021/06/13 13:48:27;;;;;;;3.50;2.40;;;26.90;32.40;;;;;;6298551;28;20292;-62
2021/06/13 13:51:41;;;;;;;2.80;1.70;;;26.90;31.00;;;;;;6298375;28;20222;-62
2021/06/13 13:54:46;;;;;;;2.83;1.57;;;26.90;29.40;;;;;;6298753;28;20222;-62
2021/06/13 13:57:50;;;;;;;1.70;1.57;;;26.70;29.70;;;;;;6298317;28;20230;-62
2021/06/13 14:00:55;;;;;;;3.30;1.90;;;26.70;30.20;;;;;;6298774;28;20241;-62
2021/06/13 14:03:58;;;;;;;1.80;1.60;;;26.70;30.30;;;;;;6298144;28;20672;-62
2021/06/13 14:07:01;;;;;;;2.60;2.40;;;26.70;30.50;;;;;;6300543;28;20231;-62
2021/06/13 14:10:06;;;;;;;3.10;1.60;;;26.80;31.40;;;;;;6302909;28;20230;-62
2021/06/13 14:13:10;;;;;;;1.83;1.63;;;26.80;30.20;;;;;;6303504;28;20566;-63
2021/06/13 14:16:13;;;;;;;2.20;1.90;;;26.90;31.50;;;;;;6302778;28;20218;-62
2021/06/13 14:19:18;;;;;;;2.80;1.60;;;26.90;30.20;;;;;;6302746;28;20249;-62
2021/06/13 14:22:21;;;;;;;1.50;1.40;;;27.00;30.40;;;;;;6302888;28;20198;-63
2021/06/13 14:25:26;;;;;;;4.47;1.80;;;26.90;29.70;;;;;;6303183;28;20226;-63
2021/06/13 14:28:29;;;;;;;2.20;1.67;;;26.80;30.10;;;;;;6302482;28;20696;-62
2021/06/13 14:31:32;;;;;;;1.60;1.50;;;26.80;30.40;;;;;;6302835;28;20564;-63
2021/06/13 14:34:36;;;;;;;3.20;2.10;;;26.80;30.50;;;;;;6302914;28;20225;-62
2021/06/13 14:37:40;;;;;;;2.30;2.10;;;26.90;31.20;;;;;;6302625;28;20227;-63
2021/06/13 14:40:45;;;;;;;2.27;1.50;;;26.80;30.30;;;;;;6302850;28;20226;-62
2021/06/13 14:43:48;;;;;;;1.80;1.60;;;26.90;29.70;;;;;;6302065;28;20565;-62
2021/06/13 14:46:51;;;;;;;1.97;1.77;;;26.80;30.00;;;;;;6302167;28;20226;-62
2021/06/13 14:49:55;;;;;;;2.60;1.40;;;26.80;29.50;;;;;;6301899;28;20232;-62
2021/06/13 14:52:59;;;;;;;2.37;1.87;;;26.80;29.60;;;;;;6302419;28;20222;-62
2021/06/13 14:56:05;;;;;;;1.83;1.73;;;26.70;29.60;;;;;;6302289;28;20241;-62
2021/06/13 14:59:08;;;;;;;1.60;1.27;;;26.70;29.50;;;;;;6285008;28;20556;-62
2021/06/13 15:02:12;;;;;;;2.00;1.77;;;26.70;29.50;;;;;;6276781;28;20692;-64
2021/06/13 15:05:16;;;;;;;1.90;1.60;;;26.70;29.40;;;;;;6277007;28;20668;-64
2021/06/13 15:08:19;;;;;;;2.20;1.70;;;26.80;31.00;;;;;;6276725;28;20227;-62
2021/06/13 15:11:26;;;;;;;2.83;2.60;;;26.90;30.30;;;;;;6276759;28;20294;-61
2021/06/13 15:14:30;;;;;;;2.00;1.83;;;26.90;30.80;;;;;;6277364;28;20235;-62
2021/06/13 15:17:33;;;;;;;3.80;1.73;;;26.90;31.30;;;;;;6275924;28;20231;-62
2021/06/13 15:20:38;;;;;;;1.60;1.50;;;26.90;30.80;;;;;;6276598;28;20246;-63
2021/06/13 15:23:41;;;;;;;2.20;1.67;;;27.00;29.90;;;;;;6276668;28;20230;-62
2021/06/13 15:26:46;;;;;;;1.77;1.67;;;27.00;29.70;;;;;;6276490;28;20583;-62
2021/06/13 15:29:50;;;;;;;1.80;1.70;;;27.00;29.40;;;;;;6276327;28;20237;-63
2021/06/13 15:32:54;;;;;;;3.93;1.60;;;26.90;28.70;;;;;;6276778;28;20242;-63
2021/06/13 15:35:58;;;;;;;4.93;1.83;;;26.90;28.70;;;;;;6276279;28;20237;-62
2021/06/13 15:39:03;;;;;;;2.10;1.73;;;26.80;27.60;;;;;;6276210;28;20573;-63
2021/06/13 15:42:12;;;;;;;1.80;1.23;;;26.80;28.70;;;;;;6276033;28;20554;-62
2021/06/13 15:45:17;;;;;;;1.57;1.47;;;26.90;29.00;;;;;;6276291;28;20234;-63
2021/06/13 15:48:20;;;;;;;1.50;1.33;;;27.00;29.40;;;;;;6276147;28;20244;-63
2021/06/13 15:51:27;;;;;;;1.57;1.47;;;27.00;30.00;;;;;;6275808;28;20677;-63
2021/06/13 15:54:32;;;;;;;1.50;1.40;;;26.90;30.30;;;;;;6275677;28;20310;-63
2021/06/13 15:57:37;;;;;;;3.27;1.50;;;26.90;30.90;;;;;;6275925;28;20321;-62
2021/06/13 16:00:41;;;;;;;2.53;2.23;;;26.90;30.00;;;;;;6275445;28;20237;-63
2021/06/13 16:03:44;;;;;;;1.60;1.40;;;26.90;30.60;;;;;;6276045;28;20238;-63
2021/06/13 16:06:47;;;;;;;3.00;2.70;;;26.80;30.20;;;;;;6275476;28;20234;-63